sensor_id;sensor_type;location;lat;lon;timestamp;temperature;humidity
20487;DHT22;10402;49.012;8.370;2022-11-15T00:00:49;10.20;98.60
20487;DHT22;10402;49.012;8.370;2022-11-15T00:03:19;10.10;98.60
20487;DHT22;10402;49.012;8.370;2022-11-15T00:05:45;10.10;98.60
20487;DHT22;10402;49.012;8.370;2022-11-15T00:08:11;10.10;98.60
20487;DHT22;10402;49.012;8.370;2022-11-15T00:10:37;10.10;98.60
20487;DHT22;10402;49.012;8.370;2022-11-15T00:13:12;10.10;98.60
20487;DHT22;10402;49.012;8.370;2022-11-15T00:15:40;10.10;98.60
20487;DHT22;10402;49.012;8.370;2022-11-15T00:18:10;10.10;98.70
20487;DHT22;10402;49.012;8.370;2022-11-15T00:20:37;10.10;98.70
20487;DHT22;10402;49.012;8.370;2022-11-15T00:23:06;10.10;98.70
20487;DHT22;10402;49.012;8.370;2022-11-15T00:25:32;10.20;98.80
20487;DHT22;10402;49.012;8.370;2022-11-15T00:27:59;10.20;98.70
20487;DHT22;10402;49.012;8.370;2022-11-15T00:30:25;10.10;98.70
20487;DHT22;10402;49.012;8.370;2022-11-15T00:32:51;10.20;98.70
20487;DHT22;10402;49.012;8.370;2022-11-15T00:35:17;10.10;98.70
20487;DHT22;10402;49.012;8.370;2022-11-15T00:37:43;10.10;98.60
20487;DHT22;10402;49.012;8.370;2022-11-15T00:40:09;10.10;98.70
20487;DHT22;10402;49.012;8.370;2022-11-15T00:42:35;10.10;98.70
20487;DHT22;10402;49.012;8.370;2022-11-15T00:45:01;10.20;98.80
20487;DHT22;10402;49.012;8.370;2022-11-15T00:47:26;10.10;98.70
20487;DHT22;10402;49.012;8.370;2022-11-15T00:49:52;10.10;98.70
20487;DHT22;10402;49.012;8.370;2022-11-15T00:52:17;10.20;98.80
20487;DHT22;10402;49.012;8.370;2022-11-15T00:54:43;10.10;98.80
20487;DHT22;10402;49.012;8.370;2022-11-15T00:57:08;10.10;98.80
20487;DHT22;10402;49.012;8.370;2022-11-15T00:59:34;10.20;98.90
20487;DHT22;10402;49.012;8.370;2022-11-15T01:02:00;10.20;98.70
20487;DHT22;10402;49.012;8.370;2022-11-15T01:04:26;10.20;98.70
20487;DHT22;10402;49.012;8.370;2022-11-15T01:06:52;10.20;98.70
20487;DHT22;10402;49.012;8.370;2022-11-15T01:09:17;10.20;98.80
20487;DHT22;10402;49.012;8.370;2022-11-15T01:11:43;10.10;98.80
20487;DHT22;10402;49.012;8.370;2022-11-15T01:14:08;10.20;98.80
20487;DHT22;10402;49.012;8.370;2022-11-15T01:16:34;10.10;98.80
20487;DHT22;10402;49.012;8.370;2022-11-15T01:18:59;10.20;98.90
20487;DHT22;10402;49.012;8.370;2022-11-15T01:21:25;10.20;98.90
20487;DHT22;10402;49.012;8.370;2022-11-15T01:23:55;10.20;98.90
20487;DHT22;10402;49.012;8.370;2022-11-15T01:26:22;10.20;98.90
20487;DHT22;10402;49.012;8.370;2022-11-15T01:28:48;10.20;99.20
20487;DHT22;10402;49.012;8.370;2022-11-15T01:31:16;10.20;98.90
20487;DHT22;10402;49.012;8.370;2022-11-15T01:33:42;10.20;98.90
20487;DHT22;10402;49.012;8.370;2022-11-15T01:36:11;10.20;98.90
20487;DHT22;10402;49.012;8.370;2022-11-15T01:38:37;10.20;98.90
20487;DHT22;10402;49.012;8.370;2022-11-15T01:41:03;10.20;99.00
20487;DHT22;10402;49.012;8.370;2022-11-15T01:43:36;10.20;98.90
20487;DHT22;10402;49.012;8.370;2022-11-15T01:46:06;10.20;98.90
20487;DHT22;10402;49.012;8.370;2022-11-15T01:48:36;10.20;98.90
20487;DHT22;10402;49.012;8.370;2022-11-15T01:51:06;10.20;98.90
20487;DHT22;10402;49.012;8.370;2022-11-15T01:53:34;10.20;98.90
20487;DHT22;10402;49.012;8.370;2022-11-15T01:56:04;10.30;99.00
20487;DHT22;10402;49.012;8.370;2022-11-15T01:58:31;10.30;98.90
20487;DHT22;10402;49.012;8.370;2022-11-15T02:00:57;10.30;99.00
20487;DHT22;10402;49.012;8.370;2022-11-15T02:03:28;10.30;99.00
20487;DHT22;10402;49.012;8.370;2022-11-15T02:05:57;10.30;99.00
20487;DHT22;10402;49.012;8.370;2022-11-15T02:08:23;10.30;99.00
20487;DHT22;10402;49.012;8.370;2022-11-15T02:10:49;10.30;98.90
20487;DHT22;10402;49.012;8.370;2022-11-15T02:13:16;10.30;98.90
20487;DHT22;10402;49.012;8.370;2022-11-15T02:18:34;10.40;99.00
20487;DHT22;10402;49.012;8.370;2022-11-15T02:21:42;10.40;99.00
20487;DHT22;10402;49.012;8.370;2022-11-15T02:26:52;10.40;99.00
20487;DHT22;10402;49.012;8.370;2022-11-15T02:32:11;10.30;99.00
20487;DHT22;10402;49.012;8.370;2022-11-15T02:34:50;10.30;99.00
20487;DHT22;10402;49.012;8.370;2022-11-15T02:37:36;10.30;99.00
20487;DHT22;10402;49.012;8.370;2022-11-15T02:40:11;10.20;99.00
20487;DHT22;10402;49.012;8.370;2022-11-15T02:43:02;10.20;99.00
20487;DHT22;10402;49.012;8.370;2022-11-15T02:46:18;10.20;99.00
20487;DHT22;10402;49.012;8.370;2022-11-15T02:48:45;10.20;99.10
20487;DHT22;10402;49.012;8.370;2022-11-15T02:51:12;10.20;99.00
20487;DHT22;10402;49.012;8.370;2022-11-15T02:53:38;10.20;99.00
20487;DHT22;10402;49.012;8.370;2022-11-15T02:56:04;10.20;99.00
20487;DHT22;10402;49.012;8.370;2022-11-15T02:58:52;10.20;99.10
20487;DHT22;10402;49.012;8.370;2022-11-15T03:01:32;10.20;99.00
20487;DHT22;10402;49.012;8.370;2022-11-15T03:04:16;10.20;99.10
20487;DHT22;10402;49.012;8.370;2022-11-15T03:06:58;10.20;99.00
20487;DHT22;10402;49.012;8.370;2022-11-15T03:09:35;10.20;99.10
20487;DHT22;10402;49.012;8.370;2022-11-15T03:12:14;10.20;99.10
20487;DHT22;10402;49.012;8.370;2022-11-15T03:17:35;10.20;99.10
20487;DHT22;10402;49.012;8.370;2022-11-15T03:20:06;10.20;99.00
20487;DHT22;10402;49.012;8.370;2022-11-15T03:22:42;10.30;99.10
20487;DHT22;10402;49.012;8.370;2022-11-15T03:25:12;10.30;99.10
20487;DHT22;10402;49.012;8.370;2022-11-15T03:27:41;10.30;99.10
20487;DHT22;10402;49.012;8.370;2022-11-15T03:30:09;10.40;99.10
20487;DHT22;10402;49.012;8.370;2022-11-15T03:32:38;10.40;99.00
20487;DHT22;10402;49.012;8.370;2022-11-15T03:35:09;10.40;99.30
20487;DHT22;10402;49.012;8.370;2022-11-15T03:38:05;10.40;98.90
20487;DHT22;10402;49.012;8.370;2022-11-15T03:40:39;10.40;99.00
20487;DHT22;10402;49.012;8.370;2022-11-15T03:43:39;10.40;99.10
20487;DHT22;10402;49.012;8.370;2022-11-15T03:46:35;10.40;99.10
20487;DHT22;10402;49.012;8.370;2022-11-15T03:49:20;10.30;99.00
20487;DHT22;10402;49.012;8.370;2022-11-15T03:51:47;10.40;99.10
20487;DHT22;10402;49.012;8.370;2022-11-15T03:54:13;10.40;99.10
20487;DHT22;10402;49.012;8.370;2022-11-15T03:56:38;10.40;99.00
20487;DHT22;10402;49.012;8.370;2022-11-15T03:59:04;10.40;99.10
20487;DHT22;10402;49.012;8.370;2022-11-15T04:01:29;10.40;99.00
20487;DHT22;10402;49.012;8.370;2022-11-15T04:03:55;10.40;99.10
20487;DHT22;10402;49.012;8.370;2022-11-15T04:06:20;10.40;99.00
20487;DHT22;10402;49.012;8.370;2022-11-15T04:08:46;10.40;99.00
20487;DHT22;10402;49.012;8.370;2022-11-15T04:11:11;10.40;99.00
20487;DHT22;10402;49.012;8.370;2022-11-15T04:13:37;10.40;99.10
20487;DHT22;10402;49.012;8.370;2022-11-15T04:16:03;10.50;99.00
20487;DHT22;10402;49.012;8.370;2022-11-15T04:18:28;10.50;99.00
20487;DHT22;10402;49.012;8.370;2022-11-15T04:20:54;10.40;98.90
20487;DHT22;10402;49.012;8.370;2022-11-15T04:23:38;10.40;99.00
20487;DHT22;10402;49.012;8.370;2022-11-15T04:26:23;10.50;99.10
20487;DHT22;10402;49.012;8.370;2022-11-15T04:28:49;10.50;99.00
20487;DHT22;10402;49.012;8.370;2022-11-15T04:31:32;10.50;98.90
20487;DHT22;10402;49.012;8.370;2022-11-15T04:33:58;10.50;99.00
20487;DHT22;10402;49.012;8.370;2022-11-15T04:36:24;10.50;99.00
20487;DHT22;10402;49.012;8.370;2022-11-15T04:39:08;10.50;99.00
20487;DHT22;10402;49.012;8.370;2022-11-15T04:41:34;10.50;99.00
20487;DHT22;10402;49.012;8.370;2022-11-15T04:43:59;10.50;99.00
20487;DHT22;10402;49.012;8.370;2022-11-15T04:46:25;10.50;99.00
20487;DHT22;10402;49.012;8.370;2022-11-15T04:48:52;10.50;99.00
20487;DHT22;10402;49.012;8.370;2022-11-15T04:51:18;10.50;99.00
20487;DHT22;10402;49.012;8.370;2022-11-15T04:53:43;10.50;99.00
20487;DHT22;10402;49.012;8.370;2022-11-15T04:56:09;10.50;99.00
20487;DHT22;10402;49.012;8.370;2022-11-15T04:58:34;10.60;99.00
20487;DHT22;10402;49.012;8.370;2022-11-15T05:01:26;10.60;99.00
20487;DHT22;10402;49.012;8.370;2022-11-15T05:03:52;10.60;99.00
20487;DHT22;10402;49.012;8.370;2022-11-15T05:06:36;10.60;99.00
20487;DHT22;10402;49.012;8.370;2022-11-15T05:09:02;10.60;98.90
20487;DHT22;10402;49.012;8.370;2022-11-15T05:11:28;10.60;98.90
20487;DHT22;10402;49.012;8.370;2022-11-15T05:13:53;10.60;98.90
20487;DHT22;10402;49.012;8.370;2022-11-15T05:16:19;10.60;98.90
20487;DHT22;10402;49.012;8.370;2022-11-15T05:18:45;10.70;99.00
20487;DHT22;10402;49.012;8.370;2022-11-15T05:21:13;10.70;99.00
20487;DHT22;10402;49.012;8.370;2022-11-15T05:23:39;10.70;99.00
20487;DHT22;10402;49.012;8.370;2022-11-15T05:26:08;10.70;99.00
20487;DHT22;10402;49.012;8.370;2022-11-15T05:28:34;10.70;99.00
20487;DHT22;10402;49.012;8.370;2022-11-15T05:31:04;10.70;98.90
20487;DHT22;10402;49.012;8.370;2022-11-15T05:33:31;10.70;99.00
20487;DHT22;10402;49.012;8.370;2022-11-15T05:36:17;10.70;99.00
20487;DHT22;10402;49.012;8.370;2022-11-15T05:38:45;10.70;99.00
20487;DHT22;10402;49.012;8.370;2022-11-15T05:41:11;10.70;99.00
20487;DHT22;10402;49.012;8.370;2022-11-15T05:43:38;10.70;98.90
20487;DHT22;10402;49.012;8.370;2022-11-15T05:46:05;10.70;99.00
20487;DHT22;10402;49.012;8.370;2022-11-15T05:48:31;10.70;99.00
20487;DHT22;10402;49.012;8.370;2022-11-15T05:50:58;10.80;99.00
20487;DHT22;10402;49.012;8.370;2022-11-15T05:53:25;10.80;98.90
20487;DHT22;10402;49.012;8.370;2022-11-15T05:55:51;10.70;98.90
20487;DHT22;10402;49.012;8.370;2022-11-15T05:58:18;10.70;98.90
20487;DHT22;10402;49.012;8.370;2022-11-15T06:00:44;10.80;99.00
20487;DHT22;10402;49.012;8.370;2022-11-15T06:03:10;10.80;98.90
20487;DHT22;10402;49.012;8.370;2022-11-15T06:05:36;10.80;98.90
20487;DHT22;10402;49.012;8.370;2022-11-15T06:08:01;10.80;98.90
20487;DHT22;10402;49.012;8.370;2022-11-15T06:10:27;10.70;98.90
20487;DHT22;10402;49.012;8.370;2022-11-15T06:13:03;10.70;98.90
20487;DHT22;10402;49.012;8.370;2022-11-15T06:15:29;10.70;98.90
20487;DHT22;10402;49.012;8.370;2022-11-15T06:17:58;10.70;98.90
20487;DHT22;10402;49.012;8.370;2022-11-15T06:20:25;10.70;99.30
20487;DHT22;10402;49.012;8.370;2022-11-15T06:22:55;10.70;98.90
20487;DHT22;10402;49.012;8.370;2022-11-15T06:25:21;10.70;99.00
20487;DHT22;10402;49.012;8.370;2022-11-15T06:27:51;10.60;98.90
20487;DHT22;10402;49.012;8.370;2022-11-15T06:30:17;10.70;99.00
20487;DHT22;10402;49.012;8.370;2022-11-15T06:32:43;10.70;99.00
20487;DHT22;10402;49.012;8.370;2022-11-15T06:35:08;10.70;98.90
20487;DHT22;10402;49.012;8.370;2022-11-15T06:37:34;10.60;98.90
20487;DHT22;10402;49.012;8.370;2022-11-15T06:40:00;10.60;99.00
20487;DHT22;10402;49.012;8.370;2022-11-15T06:42:25;10.60;99.00
20487;DHT22;10402;49.012;8.370;2022-11-15T06:44:51;10.60;99.00
20487;DHT22;10402;49.012;8.370;2022-11-15T06:47:16;10.60;99.00
20487;DHT22;10402;49.012;8.370;2022-11-15T06:49:42;10.70;99.10
20487;DHT22;10402;49.012;8.370;2022-11-15T06:52:07;10.60;99.00
20487;DHT22;10402;49.012;8.370;2022-11-15T06:54:33;10.70;99.10
20487;DHT22;10402;49.012;8.370;2022-11-15T06:56:58;10.70;99.10
20487;DHT22;10402;49.012;8.370;2022-11-15T06:59:24;10.70;99.10
20487;DHT22;10402;49.012;8.370;2022-11-15T07:01:49;10.80;99.10
20487;DHT22;10402;49.012;8.370;2022-11-15T07:04:15;10.80;98.90
20487;DHT22;10402;49.012;8.370;2022-11-15T07:06:40;10.90;98.90
20487;DHT22;10402;49.012;8.370;2022-11-15T07:09:06;10.90;98.80
20487;DHT22;10402;49.012;8.370;2022-11-15T07:11:33;10.90;98.70
20487;DHT22;10402;49.012;8.370;2022-11-15T07:14:00;10.90;98.70
20487;DHT22;10402;49.012;8.370;2022-11-15T07:16:25;10.90;98.70
20487;DHT22;10402;49.012;8.370;2022-11-15T07:18:51;10.90;98.70
20487;DHT22;10402;49.012;8.370;2022-11-15T07:21:16;10.90;98.80
20487;DHT22;10402;49.012;8.370;2022-11-15T07:23:42;10.90;98.80
20487;DHT22;10402;49.012;8.370;2022-11-15T07:26:13;11.00;98.90
20487;DHT22;10402;49.012;8.370;2022-11-15T07:28:39;11.00;98.90
20487;DHT22;10402;49.012;8.370;2022-11-15T07:31:05;11.00;98.90
20487;DHT22;10402;49.012;8.370;2022-11-15T07:33:31;11.00;98.90
20487;DHT22;10402;49.012;8.370;2022-11-15T07:36:01;11.00;98.90
20487;DHT22;10402;49.012;8.370;2022-11-15T07:38:27;11.00;98.90
20487;DHT22;10402;49.012;8.370;2022-11-15T07:41:03;11.00;98.80
20487;DHT22;10402;49.012;8.370;2022-11-15T07:43:29;11.00;98.80
20487;DHT22;10402;49.012;8.370;2022-11-15T07:45:55;11.10;98.90
20487;DHT22;10402;49.012;8.370;2022-11-15T07:48:21;11.00;98.80
20487;DHT22;10402;49.012;8.370;2022-11-15T07:50:47;11.10;98.90
20487;DHT22;10402;49.012;8.370;2022-11-15T07:53:13;11.10;98.90
20487;DHT22;10402;49.012;8.370;2022-11-15T07:55:40;11.10;98.90
20487;DHT22;10402;49.012;8.370;2022-11-15T07:58:08;11.20;98.90
20487;DHT22;10402;49.012;8.370;2022-11-15T08:00:34;11.10;98.80
20487;DHT22;10402;49.012;8.370;2022-11-15T08:03:11;11.20;98.80
20487;DHT22;10402;49.012;8.370;2022-11-15T08:05:38;11.20;98.80
20487;DHT22;10402;49.012;8.370;2022-11-15T08:08:05;11.20;98.80
20487;DHT22;10402;49.012;8.370;2022-11-15T08:10:31;11.20;98.80
20487;DHT22;10402;49.012;8.370;2022-11-15T08:13:02;11.20;98.80
20487;DHT22;10402;49.012;8.370;2022-11-15T08:15:29;11.20;98.70
20487;DHT22;10402;49.012;8.370;2022-11-15T08:17:59;11.20;98.80
20487;DHT22;10402;49.012;8.370;2022-11-15T08:20:26;11.30;98.90
20487;DHT22;10402;49.012;8.370;2022-11-15T08:22:58;11.30;98.80
20487;DHT22;10402;49.012;8.370;2022-11-15T08:25:25;11.40;98.90
20487;DHT22;10402;49.012;8.370;2022-11-15T08:27:54;11.40;98.80
20487;DHT22;10402;49.012;8.370;2022-11-15T08:30:21;11.40;98.70
20487;DHT22;10402;49.012;8.370;2022-11-15T08:32:47;11.50;98.80
20487;DHT22;10402;49.012;8.370;2022-11-15T08:35:13;11.50;98.70
20487;DHT22;10402;49.012;8.370;2022-11-15T08:37:39;11.60;98.70
20487;DHT22;10402;49.012;8.370;2022-11-15T08:40:05;11.60;98.70
20487;DHT22;10402;49.012;8.370;2022-11-15T08:42:31;11.70;98.60
20487;DHT22;10402;49.012;8.370;2022-11-15T08:44:57;11.70;98.50
20487;DHT22;10402;49.012;8.370;2022-11-15T08:47:22;11.80;98.50
20487;DHT22;10402;49.012;8.370;2022-11-15T08:49:48;11.80;98.50
20487;DHT22;10402;49.012;8.370;2022-11-15T08:52:14;11.80;98.40
20487;DHT22;10402;49.012;8.370;2022-11-15T08:54:39;11.90;98.30
20487;DHT22;10402;49.012;8.370;2022-11-15T08:57:05;11.90;98.30
20487;DHT22;10402;49.012;8.370;2022-11-15T08:59:31;11.90;98.30
20487;DHT22;10402;49.012;8.370;2022-11-15T09:01:57;12.00;98.30
20487;DHT22;10402;49.012;8.370;2022-11-15T09:04:22;12.00;98.30
20487;DHT22;10402;49.012;8.370;2022-11-15T09:06:48;12.00;98.50
20487;DHT22;10402;49.012;8.370;2022-11-15T09:09:14;12.00;98.30
20487;DHT22;10402;49.012;8.370;2022-11-15T09:11:39;12.10;98.40
20487;DHT22;10402;49.012;8.370;2022-11-15T09:14:05;12.10;98.40
20487;DHT22;10402;49.012;8.370;2022-11-15T09:16:31;12.10;98.40
20487;DHT22;10402;49.012;8.370;2022-11-15T09:18:56;12.10;98.40
20487;DHT22;10402;49.012;8.370;2022-11-15T09:21:22;12.10;98.40
20487;DHT22;10402;49.012;8.370;2022-11-15T09:23:50;12.10;98.40
20487;DHT22;10402;49.012;8.370;2022-11-15T09:26:18;12.10;98.40
20487;DHT22;10402;49.012;8.370;2022-11-15T09:28:44;12.10;98.40
20487;DHT22;10402;49.012;8.370;2022-11-15T09:31:09;12.10;98.40
20487;DHT22;10402;49.012;8.370;2022-11-15T09:33:35;12.10;98.40
20487;DHT22;10402;49.012;8.370;2022-11-15T09:36:06;12.20;98.40
20487;DHT22;10402;49.012;8.370;2022-11-15T09:38:32;12.20;98.40
20487;DHT22;10402;49.012;8.370;2022-11-15T09:49:34;12.30;98.50
20487;DHT22;10402;49.012;8.370;2022-11-15T09:52:00;12.30;98.50
20487;DHT22;10402;49.012;8.370;2022-11-15T09:54:33;12.30;98.50
20487;DHT22;10402;49.012;8.370;2022-11-15T10:00:02;12.30;98.50
20487;DHT22;10402;49.012;8.370;2022-11-15T10:05:20;12.30;98.50
20487;DHT22;10402;49.012;8.370;2022-11-15T10:07:58;12.30;98.50
20487;DHT22;10402;49.012;8.370;2022-11-15T10:10:32;12.30;98.50
20487;DHT22;10402;49.012;8.370;2022-11-15T10:13:00;12.40;98.50
20487;DHT22;10402;49.012;8.370;2022-11-15T10:15:26;12.40;98.50
20487;DHT22;10402;49.012;8.370;2022-11-15T10:18:08;12.40;98.50
20487;DHT22;10402;49.012;8.370;2022-11-15T10:20:57;12.40;98.50
20487;DHT22;10402;49.012;8.370;2022-11-15T10:23:23;12.40;98.50
20487;DHT22;10402;49.012;8.370;2022-11-15T10:25:55;12.40;98.50
20487;DHT22;10402;49.012;8.370;2022-11-15T10:30:53;12.40;98.50
20487;DHT22;10402;49.012;8.370;2022-11-15T10:33:38;12.40;98.50
20487;DHT22;10402;49.012;8.370;2022-11-15T10:41:22;12.50;98.60
20487;DHT22;10402;49.012;8.370;2022-11-15T10:46:36;12.50;98.60
20487;DHT22;10402;49.012;8.370;2022-11-15T10:51:54;12.60;98.60
20487;DHT22;10402;49.012;8.370;2022-11-15T10:54:37;12.60;98.60
20487;DHT22;10402;49.012;8.370;2022-11-15T10:57:36;12.70;98.60
20487;DHT22;10402;49.012;8.370;2022-11-15T11:02:38;12.70;98.60
20487;DHT22;10402;49.012;8.370;2022-11-15T11:05:34;12.70;98.60
20487;DHT22;10402;49.012;8.370;2022-11-15T11:10:30;12.80;98.60
20487;DHT22;10402;49.012;8.370;2022-11-15T11:13:12;12.80;98.60
20487;DHT22;10402;49.012;8.370;2022-11-15T11:15:40;12.80;98.60
20487;DHT22;10402;49.012;8.370;2022-11-15T11:18:15;12.90;98.60
20487;DHT22;10402;49.012;8.370;2022-11-15T11:20:50;12.90;98.70
20487;DHT22;10402;49.012;8.370;2022-11-15T11:29:14;13.00;98.60
20487;DHT22;10402;49.012;8.370;2022-11-15T11:31:54;13.00;98.70
20487;DHT22;10402;49.012;8.370;2022-11-15T11:34:34;13.00;98.70
20487;DHT22;10402;49.012;8.370;2022-11-15T11:40:27;13.10;98.60
20487;DHT22;10402;49.012;8.370;2022-11-15T11:48:14;13.20;98.50
20487;DHT22;10402;49.012;8.370;2022-11-15T11:50:41;13.30;98.40
20487;DHT22;10402;49.012;8.370;2022-11-15T11:53:35;13.30;98.40
20487;DHT22;10402;49.012;8.370;2022-11-15T11:56:16;13.40;98.40
20487;DHT22;10402;49.012;8.370;2022-11-15T11:58:44;13.40;98.40
20487;DHT22;10402;49.012;8.370;2022-11-15T12:01:24;13.40;98.30
20487;DHT22;10402;49.012;8.370;2022-11-15T12:06:52;13.50;98.30
20487;DHT22;10402;49.012;8.370;2022-11-15T12:09:55;13.50;98.20
20487;DHT22;10402;49.012;8.370;2022-11-15T12:12:27;13.50;98.30
20487;DHT22;10402;49.012;8.370;2022-11-15T12:15:03;13.40;98.20
20487;DHT22;10402;49.012;8.370;2022-11-15T12:17:31;13.50;98.20
20487;DHT22;10402;49.012;8.370;2022-11-15T12:20:21;13.50;98.20
20487;DHT22;10402;49.012;8.370;2022-11-15T12:23:13;13.50;98.20
20487;DHT22;10402;49.012;8.370;2022-11-15T12:25:57;13.50;98.10
20487;DHT22;10402;49.012;8.370;2022-11-15T12:28:49;13.50;98.10
20487;DHT22;10402;49.012;8.370;2022-11-15T12:36:41;13.50;98.10
20487;DHT22;10402;49.012;8.370;2022-11-15T12:39:09;13.60;98.20
20487;DHT22;10402;49.012;8.370;2022-11-15T12:47:21;13.60;98.00
20487;DHT22;10402;49.012;8.370;2022-11-15T12:49:48;13.60;98.00
20487;DHT22;10402;49.012;8.370;2022-11-15T12:52:14;13.70;98.10
20487;DHT22;10402;49.012;8.370;2022-11-15T13:07:57;13.60;97.90
20487;DHT22;10402;49.012;8.370;2022-11-15T13:10:32;13.60;98.00
20487;DHT22;10402;49.012;8.370;2022-11-15T13:13:03;13.70;98.00
20487;DHT22;10402;49.012;8.370;2022-11-15T13:15:53;13.70;98.00
20487;DHT22;10402;49.012;8.370;2022-11-15T13:18:34;13.70;98.00
20487;DHT22;10402;49.012;8.370;2022-11-15T13:21:00;13.70;97.90
20487;DHT22;10402;49.012;8.370;2022-11-15T13:23:26;13.70;97.90
20487;DHT22;10402;49.012;8.370;2022-11-15T13:28:29;13.70;97.90
20487;DHT22;10402;49.012;8.370;2022-11-15T13:31:00;13.70;97.90
20487;DHT22;10402;49.012;8.370;2022-11-15T13:33:37;13.70;97.80
20487;DHT22;10402;49.012;8.370;2022-11-15T13:36:07;13.70;97.80
20487;DHT22;10402;49.012;8.370;2022-11-15T13:38:37;13.70;97.80
20487;DHT22;10402;49.012;8.370;2022-11-15T13:41:19;13.70;97.80
20487;DHT22;10402;49.012;8.370;2022-11-15T13:43:46;13.70;97.80
20487;DHT22;10402;49.012;8.370;2022-11-15T13:49:02;13.70;97.80
20487;DHT22;10402;49.012;8.370;2022-11-15T13:51:38;13.70;97.80
20487;DHT22;10402;49.012;8.370;2022-11-15T13:56:42;13.70;97.70
20487;DHT22;10402;49.012;8.370;2022-11-15T13:59:33;13.80;97.70
20487;DHT22;10402;49.012;8.370;2022-11-15T14:02:11;13.70;97.70
20487;DHT22;10402;49.012;8.370;2022-11-15T14:04:39;13.70;97.60
20487;DHT22;10402;49.012;8.370;2022-11-15T14:07:19;13.70;97.70
20487;DHT22;10402;49.012;8.370;2022-11-15T14:09:46;13.70;97.70
20487;DHT22;10402;49.012;8.370;2022-11-15T14:12:31;13.70;97.70
20487;DHT22;10402;49.012;8.370;2022-11-15T14:14:59;13.70;97.80
20487;DHT22;10402;49.012;8.370;2022-11-15T14:19:53;13.70;97.80
20487;DHT22;10402;49.012;8.370;2022-11-15T14:22:24;13.70;98.10
20487;DHT22;10402;49.012;8.370;2022-11-15T14:25:20;13.70;97.80
20487;DHT22;10402;49.012;8.370;2022-11-15T14:28:12;13.70;97.80
20487;DHT22;10402;49.012;8.370;2022-11-15T14:30:40;13.70;97.70
20487;DHT22;10402;49.012;8.370;2022-11-15T14:35:49;13.80;97.80
20487;DHT22;10402;49.012;8.370;2022-11-15T14:38:15;13.80;97.80
20487;DHT22;10402;49.012;8.370;2022-11-15T14:40:42;13.80;97.80
20487;DHT22;10402;49.012;8.370;2022-11-15T14:43:11;13.80;97.80
20487;DHT22;10402;49.012;8.370;2022-11-15T14:45:38;13.80;97.80
20487;DHT22;10402;49.012;8.370;2022-11-15T14:48:04;13.80;97.80
20487;DHT22;10402;49.012;8.370;2022-11-15T14:50:29;13.80;97.80
20487;DHT22;10402;49.012;8.370;2022-11-15T14:52:56;13.80;97.80
20487;DHT22;10402;49.012;8.370;2022-11-15T14:55:27;13.80;97.90
20487;DHT22;10402;49.012;8.370;2022-11-15T14:57:54;13.70;97.90
20487;DHT22;10402;49.012;8.370;2022-11-15T15:00:21;13.70;97.90
20487;DHT22;10402;49.012;8.370;2022-11-15T15:02:48;13.70;98.00
20487;DHT22;10402;49.012;8.370;2022-11-15T15:07:47;13.70;98.00
20487;DHT22;10402;49.012;8.370;2022-11-15T15:10:13;13.70;98.00
20487;DHT22;10402;49.012;8.370;2022-11-15T15:12:40;13.70;98.00
20487;DHT22;10402;49.012;8.370;2022-11-15T15:15:09;13.70;98.00
20487;DHT22;10402;49.012;8.370;2022-11-15T15:17:37;13.70;98.10
20487;DHT22;10402;49.012;8.370;2022-11-15T15:20:03;13.60;98.10
20487;DHT22;10402;49.012;8.370;2022-11-15T15:22:29;13.70;98.10
20487;DHT22;10402;49.012;8.370;2022-11-15T15:24:55;13.60;98.10
20487;DHT22;10402;49.012;8.370;2022-11-15T15:27:21;13.60;98.10
20487;DHT22;10402;49.012;8.370;2022-11-15T15:29:46;13.70;98.20
20487;DHT22;10402;49.012;8.370;2022-11-15T15:32:15;13.70;98.10
20487;DHT22;10402;49.012;8.370;2022-11-15T15:34:44;13.70;98.10
20487;DHT22;10402;49.012;8.370;2022-11-15T15:37:26;13.60;98.10
20487;DHT22;10402;49.012;8.370;2022-11-15T15:39:56;13.60;98.20
20487;DHT22;10402;49.012;8.370;2022-11-15T15:42:22;13.70;98.20
20487;DHT22;10402;49.012;8.370;2022-11-15T15:44:49;13.60;98.20
20487;DHT22;10402;49.012;8.370;2022-11-15T15:47:22;13.60;98.20
20487;DHT22;10402;49.012;8.370;2022-11-15T15:49:49;13.60;98.20
20487;DHT22;10402;49.012;8.370;2022-11-15T15:52:15;13.60;98.20
20487;DHT22;10402;49.012;8.370;2022-11-15T15:54:41;13.60;98.20
20487;DHT22;10402;49.012;8.370;2022-11-15T15:57:08;13.60;98.20
20487;DHT22;10402;49.012;8.370;2022-11-15T15:59:36;13.60;98.20
20487;DHT22;10402;49.012;8.370;2022-11-15T16:02:02;13.60;98.10
20487;DHT22;10402;49.012;8.370;2022-11-15T16:04:28;13.60;98.20
20487;DHT22;10402;49.012;8.370;2022-11-15T16:06:58;13.60;98.20
20487;DHT22;10402;49.012;8.370;2022-11-15T16:09:24;13.50;98.30
20487;DHT22;10402;49.012;8.370;2022-11-15T16:12:09;13.50;98.30
20487;DHT22;10402;49.012;8.370;2022-11-15T16:14:35;13.50;98.30
20487;DHT22;10402;49.012;8.370;2022-11-15T16:17:01;13.60;98.40
20487;DHT22;10402;49.012;8.370;2022-11-15T16:19:27;13.50;98.30
20487;DHT22;10402;49.012;8.370;2022-11-15T16:21:52;13.50;98.30
20487;DHT22;10402;49.012;8.370;2022-11-15T16:24:18;13.50;98.40
20487;DHT22;10402;49.012;8.370;2022-11-15T16:26:45;13.50;98.50
20487;DHT22;10402;49.012;8.370;2022-11-15T16:29:11;13.50;98.50
20487;DHT22;10402;49.012;8.370;2022-11-15T16:31:37;13.50;98.50
20487;DHT22;10402;49.012;8.370;2022-11-15T16:34:03;13.50;98.40
20487;DHT22;10402;49.012;8.370;2022-11-15T16:36:32;13.50;98.40
20487;DHT22;10402;49.012;8.370;2022-11-15T16:38:58;13.40;98.40
20487;DHT22;10402;49.012;8.370;2022-11-15T16:41:24;13.40;98.50
20487;DHT22;10402;49.012;8.370;2022-11-15T16:43:50;13.40;98.50
20487;DHT22;10402;49.012;8.370;2022-11-15T16:46:23;13.40;98.60
20487;DHT22;10402;49.012;8.370;2022-11-15T16:48:49;13.40;98.60
20487;DHT22;10402;49.012;8.370;2022-11-15T16:51:16;13.40;98.70
20487;DHT22;10402;49.012;8.370;2022-11-15T16:53:42;13.40;98.60
20487;DHT22;10402;49.012;8.370;2022-11-15T16:56:21;13.40;98.60
20487;DHT22;10402;49.012;8.370;2022-11-15T16:58:48;13.40;98.70
20487;DHT22;10402;49.012;8.370;2022-11-15T17:01:21;13.40;98.70
20487;DHT22;10402;49.012;8.370;2022-11-15T17:03:47;13.40;98.80
20487;DHT22;10402;49.012;8.370;2022-11-15T17:06:13;13.40;98.80
20487;DHT22;10402;49.012;8.370;2022-11-15T17:08:39;13.40;98.80
20487;DHT22;10402;49.012;8.370;2022-11-15T17:11:06;13.40;98.70
20487;DHT22;10402;49.012;8.370;2022-11-15T17:13:31;13.40;99.00
20487;DHT22;10402;49.012;8.370;2022-11-15T17:16:09;13.40;98.70
20487;DHT22;10402;49.012;8.370;2022-11-15T17:18:35;13.40;98.70
20487;DHT22;10402;49.012;8.370;2022-11-15T17:21:23;13.30;98.70
20487;DHT22;10402;49.012;8.370;2022-11-15T17:23:49;13.30;98.80
20487;DHT22;10402;49.012;8.370;2022-11-15T17:26:15;13.30;98.90
20487;DHT22;10402;49.012;8.370;2022-11-15T17:28:41;13.30;99.00